Cadyville, New York
Current Conditions -  °F | °C
As of 7:44 PM on Saturday 25 Oct 2014 (Local Time) from KPBG Reporting Station
Thunderstorm Thunderstorm  
Wind Chill: 51°   Ceiling: 4700
Heat Index: 51°   Visibility: 10mi
Dew Point: 49°   Wind: 3mph
Humidity: 92%   Direction: NA
Pressure: 29.48"   Gusts: NA
Location:  44.7°N, 73.63°W
Report Text: KPBG 252344Z AUTO VRB03KT 10SM -TSRA SCT040 BKN047 OVC055 11/09 A2948 RMK AO2 TSB38 P0008 T01060094
Loading
Personal Weather Stations






























Interactive Weather Map
Tropical Storm Tracking
New forecast layout! Learn more

10-Day Weather Forecast

Advertisements
Track Severe Weather on mobile